Time;durP1;ratioP1;P1;durP2;ratioP2;P2;SDS_P1;SDS_P2;PMS_P1;PMS_P2;Temp;Humidity;BMP_temperature;BMP_pressure;BME280_temperature;BME280_humidity;BME280_pressure;Samples;Min_cycle;Max_cycle;Signal;HPM_P1;HPM_P2
2023/06/21 00:01:31;;;;;;;7.00;6.30;;;25.40;61.70;;;;;;5033931;28;20120;-68
2023/06/21 00:03:59;;;;;;;6.47;5.88;;;25.40;61.60;;;;;;5034346;28;20029;-67
2023/06/21 00:06:29;;;;;;;6.65;5.93;;;25.50;61.70;;;;;;5034163;28;20017;-67
2023/06/21 00:08:58;;;;;;;6.82;6.13;;;25.50;61.60;;;;;;5016071;28;20057;-67
2023/06/21 00:11:24;;;;;;;6.68;6.07;;;25.50;61.50;;;;;;5033644;28;20037;-68
2023/06/21 00:13:54;;;;;;;6.07;5.47;;;25.50;61.50;;;;;;5033831;28;20108;-69
2023/06/21 00:16:20;;;;;;;6.70;6.10;;;25.50;61.50;;;;;;5033939;28;20032;-67
2023/06/21 00:18:45;;;;;;;6.45;5.85;;;25.50;61.40;;;;;;5033926;28;20033;-67
2023/06/21 00:21:11;;;;;;;6.80;6.20;;;25.50;61.40;;;;;;5033659;28;20097;-67
2023/06/21 00:23:37;;;;;;;6.53;5.85;;;25.50;61.30;;;;;;5033611;28;20029;-67
2023/06/21 00:26:03;;;;;;;7.07;6.38;;;25.50;61.30;;;;;;5033746;28;20407;-68
2023/06/21 00:28:28;;;;;;;6.68;6.07;;;25.50;61.20;;;;;;5033507;28;20029;-67
2023/06/21 00:30:54;;;;;;;6.22;5.63;;;25.50;61.20;;;;;;5033786;28;20466;-68
2023/06/21 00:33:19;;;;;;;6.60;6.00;;;25.50;61.10;;;;;;5033423;28;20021;-68
2023/06/21 00:35:45;;;;;;;6.50;5.90;;;25.50;61.10;;;;;;5033697;28;20052;-68
2023/06/21 00:38:12;;;;;;;6.03;5.43;;;25.50;61.10;;;;;;5016059;28;20018;-68
2023/06/21 00:40:39;;;;;;;6.40;5.80;;;25.50;61.00;;;;;;5033337;28;20064;-68
2023/06/21 00:43:05;;;;;;;6.65;5.95;;;25.50;61.00;;;;;;5015553;28;20049;-68
2023/06/21 00:45:39;;;;;;;6.18;5.57;;;25.50;61.00;;;;;;5033790;28;20030;-68
2023/06/21 00:48:05;;;;;;;6.32;5.72;;;25.50;60.90;;;;;;5015920;28;20087;-69
2023/06/21 00:50:31;;;;;;;6.20;5.60;;;25.50;60.90;;;;;;5033485;28;20029;-68
2023/06/21 00:52:57;;;;;;;6.70;5.57;;;25.50;60.90;;;;;;5033322;28;20512;-68
2023/06/21 00:55:23;;;;;;;6.00;5.40;;;25.50;60.90;;;;;;5033424;28;20065;-68
2023/06/21 00:57:49;;;;;;;6.72;6.03;;;25.50;60.80;;;;;;5033496;28;20026;-68
2023/06/21 01:00:20;;;;;;;6.20;5.60;;;25.50;60.80;;;;;;5033669;28;20030;-68
2023/06/21 01:02:46;;;;;;;6.78;5.65;;;25.50;60.70;;;;;;5032146;28;20029;-68
2023/06/21 01:05:15;;;;;;;6.05;5.45;;;25.50;60.70;;;;;;5033555;28;20029;-68
2023/06/21 01:08:14;;;;;;;6.07;5.50;;;25.50;60.60;;;;;;5015384;28;20033;-68
2023/06/21 01:10:47;;;;;;;5.82;5.25;;;25.60;60.70;;;;;;5033385;28;20025;-68
2023/06/21 01:13:34;;;;;;;6.10;5.50;;;25.60;60.70;;;;;;5034553;28;20055;-68
2023/06/21 01:16:21;;;;;;;6.05;5.47;;;25.60;60.60;;;;;;5037158;28;20038;-68
2023/06/21 01:18:51;;;;;;;6.20;5.60;;;25.50;60.50;;;;;;5037487;28;20030;-68
2023/06/21 01:21:22;;;;;;;5.90;5.30;;;25.60;61.10;;;;;;5019336;28;20025;-68
2023/06/21 01:23:57;;;;;;;5.70;5.20;;;25.60;60.50;;;;;;5019330;28;20029;-69
2023/06/21 01:26:58;;;;;;;5.70;5.13;;;25.60;60.50;;;;;;5036742;28;20445;-69
2023/06/21 01:29:28;;;;;;;5.38;4.88;;;25.50;60.50;;;;;;5035610;28;20036;-68
2023/06/21 01:31:55;;;;;;;6.03;5.43;;;25.60;60.50;;;;;;5019278;28;20065;-67
2023/06/21 01:34:21;;;;;;;5.97;5.38;;;25.60;60.40;;;;;;5018855;28;20460;-68
2023/06/21 01:36:47;;;;;;;6.00;5.38;;;25.50;60.40;;;;;;5018743;28;20033;-68
2023/06/21 01:39:14;;;;;;;6.10;5.50;;;25.60;60.40;;;;;;5036614;28;20056;-68
2023/06/21 01:41:40;;;;;;;5.93;5.32;;;25.60;60.40;;;;;;5036062;28;20030;-69
2023/06/21 01:44:13;;;;;;;5.93;5.32;;;25.50;60.30;;;;;;5035961;28;20045;-69
2023/06/21 01:46:39;;;;;;;5.80;5.18;;;25.50;60.30;;;;;;5036345;28;20021;-68
2023/06/21 01:49:08;;;;;;;5.80;5.25;;;25.50;60.30;;;;;;5017995;28;20021;-68
2023/06/21 01:51:39;;;;;;;5.80;5.20;;;25.50;60.30;;;;;;5035902;28;20538;-68
2023/06/21 01:54:05;;;;;;;5.35;4.85;;;25.60;60.40;;;;;;5033352;28;20030;-67
2023/06/21 01:56:33;;;;;;;5.30;4.80;;;25.50;60.30;;;;;;5016739;28;20030;-67
2023/06/21 01:59:00;;;;;;;5.82;5.32;;;25.50;60.30;;;;;;5035809;28;20045;-68
2023/06/21 02:01:27;;;;;;;5.93;5.32;;;25.50;60.90;;;;;;5035801;28;20079;-68
2023/06/21 02:03:56;;;;;;;5.80;5.20;;;25.60;60.30;;;;;;5034208;28;20053;-68
2023/06/21 02:06:26;;;;;;;6.05;5.10;;;25.50;60.30;;;;;;5035730;28;20071;-68
2023/06/21 02:08:53;;;;;;;6.00;5.40;;;25.60;60.30;;;;;;5018026;28;20053;-68
2023/06/21 02:11:19;;;;;;;5.78;5.18;;;25.60;60.30;;;;;;5036420;28;20419;-68
2023/06/21 02:13:48;;;;;;;5.57;5.07;;;25.60;60.30;;;;;;5018160;28;20029;-69
2023/06/21 02:16:17;;;;;;;5.80;5.20;;;25.60;60.20;;;;;;5018178;28;20029;-69
2023/06/21 02:18:44;;;;;;;6.00;5.40;;;25.60;60.20;;;;;;5018158;28;20026;-68
2023/06/21 02:21:11;;;;;;;5.45;4.95;;;25.60;60.20;;;;;;5036053;28;20036;-68
2023/06/21 02:23:37;;;;;;;5.93;5.32;;;25.60;60.10;;;;;;5034619;28;20025;-68
2023/06/21 02:26:03;;;;;;;6.10;5.50;;;25.60;60.10;;;;;;5035679;28;20216;-68
2023/06/21 02:28:29;;;;;;;5.78;5.18;;;25.60;60.10;;;;;;5018159;28;20071;-69
2023/06/21 02:30:54;;;;;;;5.68;5.05;;;25.60;60.10;;;;;;5035541;28;20072;-69
2023/06/21 02:33:20;;;;;;;5.50;4.95;;;25.60;60.00;;;;;;5018002;28;20033;-68
2023/06/21 02:35:46;;;;;;;6.00;5.40;;;25.60;60.00;;;;;;5035610;28;20029;-70
2023/06/21 02:38:11;;;;;;;5.70;5.20;;;25.60;60.00;;;;;;5035074;28;20151;-68
2023/06/21 02:40:37;;;;;;;5.55;5.05;;;25.60;60.00;;;;;;5034087;28;20029;-68
2023/06/21 02:43:04;;;;;;;6.30;5.70;;;25.60;60.00;;;;;;5035511;28;20049;-69
2023/06/21 02:45:29;;;;;;;5.97;5.45;;;25.70;60.00;;;;;;5035224;28;20036;-69
2023/06/21 02:47:55;;;;;;;6.03;5.43;;;25.70;60.00;;;;;;5035706;28;20021;-68
2023/06/21 02:50:21;;;;;;;6.03;5.43;;;25.70;60.00;;;;;;5035523;28;20463;-68
2023/06/21 02:52:46;;;;;;;5.60;5.10;;;25.70;59.90;;;;;;5017449;28;20448;-68
2023/06/21 02:55:12;;;;;;;5.78;5.18;;;25.70;59.90;;;;;;5035254;28;20041;-69
2023/06/21 02:57:37;;;;;;;5.95;5.45;;;25.70;59.90;;;;;;5035079;28;20033;-69
2023/06/21 03:00:17;;;;;;;5.90;5.30;;;25.70;59.90;;;;;;5017726;28;20411;-68
2023/06/21 03:02:44;;;;;;;5.53;5.03;;;25.70;59.80;;;;;;5035449;28;20521;-69
2023/06/21 03:05:13;;;;;;;5.90;5.30;;;25.80;59.90;;;;;;5017399;28;20029;-68
2023/06/21 03:07:43;;;;;;;6.22;5.63;;;25.80;59.80;;;;;;5035160;28;20028;-69
2023/06/21 03:10:11;;;;;;;5.97;5.40;;;25.80;59.70;;;;;;5034944;28;20058;-69
2023/06/21 03:12:38;;;;;;;6.03;5.43;;;25.90;59.80;;;;;;5016972;28;20036;-68
2023/06/21 03:15:04;;;;;;;6.20;5.60;;;25.90;59.70;;;;;;5017124;28;20112;-68
2023/06/21 03:17:30;;;;;;;5.97;5.38;;;25.90;59.60;;;;;;5017022;28;20180;-68
2023/06/21 03:19:56;;;;;;;6.03;5.43;;;25.90;59.60;;;;;;5034859;28;20026;-68
2023/06/21 03:22:21;;;;;;;5.78;5.18;;;26.00;59.70;;;;;;5034882;28;20579;-69
2023/06/21 03:24:47;;;;;;;5.97;5.40;;;26.00;59.60;;;;;;5034664;28;20108;-70
2023/06/21 03:27:13;;;;;;;6.00;5.40;;;26.00;59.50;;;;;;5034694;28;20030;-69
2023/06/21 03:29:39;;;;;;;6.18;5.60;;;26.00;59.50;;;;;;5034726;28;20044;-69
2023/06/21 03:32:05;;;;;;;5.82;5.32;;;26.00;59.50;;;;;;5034618;28;20108;-69
2023/06/21 03:34:30;;;;;;;6.00;5.40;;;26.00;59.40;;;;;;5034387;28;20043;-69
2023/06/21 03:36:56;;;;;;;5.82;5.18;;;26.10;59.50;;;;;;5034321;28;20074;-69
2023/06/21 03:39:22;;;;;;;6.40;5.63;;;26.10;59.40;;;;;;5016817;28;20025;-69
2023/06/21 03:41:47;;;;;;;6.05;5.45;;;26.10;59.40;;;;;;5034183;28;20021;-69
2023/06/21 03:44:13;;;;;;;6.03;5.43;;;26.10;59.40;;;;;;5034968;28;20036;-68
2023/06/21 03:46:39;;;;;;;5.97;5.38;;;26.10;59.30;;;;;;5034348;28;20061;-68
2023/06/21 03:49:05;;;;;;;6.40;5.80;;;26.10;59.30;;;;;;5034152;28;20021;-68
2023/06/21 03:51:31;;;;;;;5.90;5.30;;;26.20;59.30;;;;;;5034058;28;20036;-69
2023/06/21 03:53:57;;;;;;;5.88;5.28;;;26.20;59.30;;;;;;5034375;28;20060;-69
2023/06/21 03:56:22;;;;;;;6.50;5.90;;;26.20;59.20;;;;;;5034155;28;20494;-69
2023/06/21 03:58:48;;;;;;;6.53;5.93;;;26.20;59.20;;;;;;5034411;28;20025;-69
2023/06/21 04:01:15;;;;;;;6.32;5.72;;;26.20;59.20;;;;;;5033693;28;20086;-69
2023/06/21 04:03:40;;;;;;;6.38;5.78;;;26.20;59.20;;;;;;5032479;28;20068;-68
2023/06/21 04:06:06;;;;;;;6.20;5.60;;;26.20;59.20;;;;;;5033917;28;20056;-68
2023/06/21 04:08:32;;;;;;;6.28;5.68;;;26.20;59.20;;;;;;5033631;28;20029;-69
2023/06/21 04:10:57;;;;;;;6.28;5.68;;;26.20;59.20;;;;;;5015908;28;20025;-68
2023/06/21 04:13:23;;;;;;;7.45;5.82;;;26.20;59.20;;;;;;5033917;28;20456;-68
2023/06/21 04:15:48;;;;;;;6.30;5.70;;;26.20;59.30;;;;;;5033820;28;20166;-68
2023/06/21 04:18:14;;;;;;;6.47;5.78;;;26.20;59.20;;;;;;5033746;28;20112;-68
2023/06/21 04:20:40;;;;;;;7.22;6.35;;;26.20;59.30;;;;;;5033777;28;20456;-68
2023/06/21 04:23:05;;;;;;;6.55;5.95;;;26.20;59.30;;;;;;5032358;28;20029;-69
2023/06/21 04:25:31;;;;;;;6.95;6.25;;;26.20;59.30;;;;;;5015674;28;20032;-68
2023/06/21 04:27:57;;;;;;;7.53;6.82;;;26.20;59.30;;;;;;5033546;28;20104;-68
2023/06/21 04:30:22;;;;;;;6.60;6.00;;;26.20;59.30;;;;;;5033338;28;20370;-69
2023/06/21 04:32:48;;;;;;;6.65;6.05;;;26.20;59.30;;;;;;5033400;28;20029;-68
2023/06/21 04:35:15;;;;;;;7.28;6.57;;;26.30;59.40;;;;;;5033255;28;20033;-69
2023/06/21 04:37:46;;;;;;;7.07;6.38;;;26.30;59.30;;;;;;5033664;28;20028;-69
2023/06/21 04:40:16;;;;;;;7.32;6.63;;;26.30;59.30;;;;;;5033569;28;20075;-68
2023/06/21 04:42:44;;;;;;;7.07;6.38;;;26.40;59.40;;;;;;5015820;28;20123;-69
2023/06/21 04:45:14;;;;;;;7.70;7.00;;;26.40;59.90;;;;;;5015546;28;20033;-69
2023/06/21 04:47:40;;;;;;;7.70;7.00;;;26.50;59.40;;;;;;5017644;28;20052;-67
2023/06/21 04:50:06;;;;;;;7.75;6.78;;;26.50;59.30;;;;;;5020010;28;20034;-68
2023/06/21 04:52:32;;;;;;;7.55;6.78;;;26.50;59.30;;;;;;5036679;28;20387;-70
2023/06/21 04:55:01;;;;;;;7.45;6.75;;;26.60;59.30;;;;;;5037057;28;20040;-70
2023/06/21 04:57:26;;;;;;;7.22;6.53;;;26.60;59.20;;;;;;5037197;28;20057;-70
2023/06/21 04:59:52;;;;;;;7.50;6.80;;;26.70;59.20;;;;;;5037156;28;20041;-71
2023/06/21 05:02:18;;;;;;;7.30;6.57;;;26.80;59.20;;;;;;5018985;28;20026;-70
2023/06/21 05:04:43;;;;;;;7.80;7.00;;;26.80;59.20;;;;;;5036499;28;20075;-72
2023/06/21 05:07:09;;;;;;;8.27;7.47;;;26.80;59.30;;;;;;5033321;28;20041;-70
2023/06/21 05:09:35;;;;;;;9.45;8.45;;;26.70;59.40;;;;;;5034414;28;20030;-71
2023/06/21 05:12:00;;;;;;;8.32;7.53;;;26.50;59.80;;;;;;5036439;28;20487;-69
2023/06/21 05:14:26;;;;;;;11.23;8.48;;;26.40;60.00;;;;;;5036582;28;20029;-69
2023/06/21 05:16:51;;;;;;;9.50;8.60;;;26.40;60.30;;;;;;5036313;28;20034;-69
2023/06/21 05:19:17;;;;;;;8.68;7.85;;;26.30;60.50;;;;;;5018204;28;20029;-70
2023/06/21 05:21:44;;;;;;;8.88;7.97;;;26.20;60.70;;;;;;5036149;28;20310;-70
2023/06/21 05:24:10;;;;;;;8.30;7.50;;;26.10;60.80;;;;;;5036174;28;20084;-70
2023/06/21 05:26:35;;;;;;;9.00;7.95;;;26.10;61.00;;;;;;5018158;28;20026;-71
2023/06/21 05:29:01;;;;;;;10.35;9.35;;;26.10;61.20;;;;;;5035721;28;20052;-70
2023/06/21 05:31:28;;;;;;;8.45;7.63;;;26.00;61.20;;;;;;5036239;28;20384;-70
2023/06/21 05:33:54;;;;;;;8.50;7.70;;;26.00;61.40;;;;;;5035914;28;20103;-70
2023/06/21 05:36:19;;;;;;;8.30;7.50;;;26.00;61.50;;;;;;5035931;28;20062;-70
2023/06/21 05:38:45;;;;;;;8.55;7.60;;;26.00;61.50;;;;;;5018105;28;20037;-71
2023/06/21 05:41:11;;;;;;;8.80;8.00;;;26.00;61.50;;;;;;5035952;28;20030;-70
2023/06/21 05:43:36;;;;;;;9.68;8.68;;;25.90;61.60;;;;;;5036060;28;20046;-70
2023/06/21 05:46:02;;;;;;;9.48;8.57;;;25.90;61.90;;;;;;5035730;28;20030;-71
2023/06/21 05:48:29;;;;;;;9.48;8.57;;;25.90;62.20;;;;;;5035323;28;20487;-71
2023/06/21 05:50:55;;;;;;;10.02;9.10;;;25.90;62.20;;;;;;5035492;28;20040;-71
2023/06/21 05:53:20;;;;;;;9.93;9.00;;;25.90;62.30;;;;;;5035970;28;20372;-70
2023/06/21 05:55:46;;;;;;;9.98;9.07;;;25.90;62.30;;;;;;5035436;28;20107;-70
2023/06/21 05:58:12;;;;;;;9.68;8.77;;;25.80;62.20;;;;;;5034970;28;20026;-71
2023/06/21 06:00:38;;;;;;;10.25;9.18;;;25.80;62.30;;;;;;5017491;28;20416;-71
2023/06/21 06:03:03;;;;;;;12.90;9.13;;;25.80;62.40;;;;;;5034974;28;20034;-72
2023/06/21 06:05:29;;;;;;;8.90;8.00;;;25.80;62.50;;;;;;5017260;28;20121;-73
2023/06/21 06:07:55;;;;;;;9.13;8.25;;;25.80;62.50;;;;;;5035555;28;20108;-72
2023/06/21 06:10:20;;;;;;;7.65;6.95;;;25.80;62.60;;;;;;5017543;28;20025;-72
2023/06/21 06:12:46;;;;;;;8.90;8.00;;;25.80;63.10;;;;;;5035412;28;20028;-71
2023/06/21 06:15:11;;;;;;;9.60;8.57;;;25.80;62.50;;;;;;5033434;28;20399;-72
2023/06/21 06:17:38;;;;;;;9.50;8.60;;;25.80;62.50;;;;;;5035107;28;20046;-70
2023/06/21 06:20:06;;;;;;;8.98;8.18;;;25.90;62.50;;;;;;5035026;28;20474;-73
2023/06/21 06:22:37;;;;;;;8.73;7.88;;;25.90;62.50;;;;;;5017814;28;20080;-72
2023/06/21 06:25:03;;;;;;;9.27;8.38;;;26.00;62.50;;;;;;5034890;28;20092;-74
2023/06/21 06:27:29;;;;;;;9.55;8.65;;;26.00;62.40;;;;;;5033687;28;20116;-75
2023/06/21 06:29:55;;;;;;;10.55;8.73;;;26.00;62.20;;;;;;5035147;28;20041;-75
2023/06/21 06:32:21;;;;;;;8.43;7.45;;;26.10;62.10;;;;;;5034916;28;20022;-75
2023/06/21 06:34:46;;;;;;;8.57;7.68;;;26.10;62.00;;;;;;5034628;28;20036;-73
2023/06/21 06:37:12;;;;;;;9.98;8.48;;;26.10;61.80;;;;;;5034308;28;20025;-73
2023/06/21 06:39:38;;;;;;;11.18;8.27;;;26.20;61.80;;;;;;5016952;28;20472;-73
2023/06/21 06:42:04;;;;;;;9.20;8.30;;;26.20;61.70;;;;;;5034559;28;20083;-73
2023/06/21 06:44:29;;;;;;;9.57;8.32;;;26.20;61.80;;;;;;5017268;28;20124;-73
2023/06/21 06:46:55;;;;;;;9.30;8.48;;;26.20;61.80;;;;;;5034594;28;20095;-74
2023/06/21 06:49:21;;;;;;;9.40;7.90;;;26.20;61.80;;;;;;5033920;28;20475;-74
2023/06/21 06:51:46;;;;;;;9.02;8.15;;;26.20;61.80;;;;;;5034456;28;20104;-74
2023/06/21 06:54:12;;;;;;;9.98;8.98;;;26.10;61.80;;;;;;5034489;28;20033;-73
2023/06/21 06:56:38;;;;;;;9.10;8.20;;;26.10;61.90;;;;;;5034633;28;20042;-72
2023/06/21 06:59:03;;;;;;;8.25;7.45;;;26.10;61.90;;;;;;5034146;28;20037;-75
2023/06/21 07:01:29;;;;;;;8.55;7.75;;;26.10;61.90;;;;;;5033749;28;20112;-74
2023/06/21 07:03:56;;;;;;;9.95;8.95;;;26.10;62.00;;;;;;5034114;28;20095;-74
2023/06/21 07:06:22;;;;;;;10.10;9.13;;;26.10;62.20;;;;;;5016560;28;20030;-74
2023/06/21 07:08:47;;;;;;;11.27;8.88;;;26.10;62.30;;;;;;5034320;28;20102;-75
2023/06/21 07:11:13;;;;;;;8.25;7.45;;;26.10;62.40;;;;;;5033530;28;20440;-76
2023/06/21 07:13:39;;;;;;;9.00;8.13;;;26.10;62.40;;;;;;5034532;28;20026;-75
2023/06/21 07:16:05;;;;;;;9.38;8.48;;;26.10;62.40;;;;;;5033443;28;20021;-76
2023/06/21 07:18:31;;;;;;;7.88;7.13;;;26.10;62.30;;;;;;5032940;28;20087;-76
2023/06/21 07:20:56;;;;;;;8.82;7.60;;;26.10;62.30;;;;;;5016482;28;20034;-75
2023/06/21 07:23:22;;;;;;;9.90;9.00;;;26.10;62.30;;;;;;5034577;28;20025;-75
2023/06/21 07:25:48;;;;;;;9.23;8.32;;;26.10;62.30;;;;;;5017010;28;20029;-75
2023/06/21 07:28:14;;;;;;;8.77;7.97;;;26.10;62.40;;;;;;5034567;28;20037;-76
2023/06/21 07:30:42;;;;;;;8.90;8.00;;;26.10;62.50;;;;;;5034452;28;20052;-76
2023/06/21 07:33:08;;;;;;;9.35;8.48;;;26.10;62.50;;;;;;5034291;28;20017;-75
2023/06/21 07:35:34;;;;;;;9.50;8.48;;;26.10;62.40;;;;;;5034338;28;20120;-75
2023/06/21 07:38:00;;;;;;;8.77;7.88;;;26.20;62.40;;;;;;5034434;28;20041;-75
2023/06/21 07:40:25;;;;;;;8.57;7.72;;;26.20;62.30;;;;;;5034441;28;20025;-75
2023/06/21 07:42:51;;;;;;;9.15;8.25;;;26.30;62.30;;;;;;5034541;28;20125;-74
2023/06/21 07:45:17;;;;;;;9.30;8.35;;;26.40;62.20;;;;;;5034435;28;20037;-75
2023/06/21 07:47:42;;;;;;;8.25;7.45;;;26.50;62.10;;;;;;5034193;28;20041;-75
2023/06/21 07:50:08;;;;;;;8.65;7.82;;;26.50;62.00;;;;;;5016717;28;20025;-75
2023/06/21 07:52:34;;;;;;;8.27;7.47;;;26.60;61.90;;;;;;5034603;28;20349;-75
2023/06/21 07:54:59;;;;;;;8.55;7.70;;;26.60;61.80;;;;;;5016472;28;20452;-75
2023/06/21 07:57:25;;;;;;;8.40;7.20;;;26.60;61.80;;;;;;5034346;28;20468;-75
2023/06/21 07:59:51;;;;;;;8.32;7.40;;;26.60;61.70;;;;;;5016541;28;20383;-75
2023/06/21 08:02:17;;;;;;;8.85;7.95;;;26.60;61.70;;;;;;5033949;28;20032;-76
2023/06/21 08:04:44;;;;;;;8.43;7.63;;;26.70;61.50;;;;;;5017029;28;20086;-76
2023/06/21 08:07:10;;;;;;;8.50;7.50;;;26.70;61.50;;;;;;5016510;28;20384;-75
2023/06/21 08:09:35;;;;;;;8.57;7.68;;;26.70;61.30;;;;;;5033996;28;20033;-76
2023/06/21 08:12:01;;;;;;;7.85;7.15;;;26.60;61.00;;;;;;5034098;28;20038;-75
2023/06/21 08:14:27;;;;;;;8.65;7.75;;;26.60;61.10;;;;;;5016160;28;20506;-75
2023/06/21 08:16:53;;;;;;;8.45;7.65;;;26.50;60.80;;;;;;5033925;28;20048;-75
2023/06/21 08:19:19;;;;;;;8.88;7.97;;;26.50;60.80;;;;;;5016211;28;20452;-74
2023/06/21 08:21:44;;;;;;;7.90;7.10;;;26.50;60.80;;;;;;5034103;28;20025;-74
2023/06/21 08:24:10;;;;;;;7.50;6.80;;;26.50;60.70;;;;;;5033724;28;20084;-73
2023/06/21 08:26:36;;;;;;;8.40;7.53;;;26.50;60.70;;;;;;5033717;28;20032;-74
2023/06/21 08:29:02;;;;;;;8.50;7.70;;;26.60;60.70;;;;;;5034014;28;20379;-75
2023/06/21 08:31:27;;;;;;;8.15;7.35;;;26.60;60.70;;;;;;5033368;28;20068;-74
2023/06/21 08:33:53;;;;;;;9.25;8.40;;;26.70;60.80;;;;;;5015886;28;20563;-74
2023/06/21 08:36:19;;;;;;;10.30;7.88;;;26.70;60.60;;;;;;5033868;28;20025;-74
2023/06/21 08:38:45;;;;;;;8.88;8.00;;;26.70;60.50;;;;;;5033845;28;20022;-74
2023/06/21 08:41:11;;;;;;;8.75;7.95;;;26.80;60.50;;;;;;5033627;28;20080;-74
2023/06/21 08:43:37;;;;;;;9.02;8.20;;;26.80;60.80;;;;;;5033829;28;20042;-74
2023/06/21 08:46:05;;;;;;;8.57;7.78;;;26.80;60.70;;;;;;5033263;28;20452;-74
2023/06/21 08:48:32;;;;;;;8.65;7.85;;;26.80;60.70;;;;;;5033969;28;20048;-74
2023/06/21 08:51:04;;;;;;;8.95;8.05;;;26.80;60.70;;;;;;5033637;28;20033;-74
2023/06/21 08:53:49;;;;;;;9.13;8.32;;;26.70;60.70;;;;;;5033436;28;20127;-74
2023/06/21 08:56:20;;;;;;;8.32;7.53;;;26.70;60.60;;;;;;5016044;28;20052;-74
2023/06/21 08:58:54;;;;;;;8.60;7.20;;;26.60;60.50;;;;;;5033244;28;20021;-74
2023/06/21 09:01:23;;;;;;;8.93;8.10;;;26.60;60.40;;;;;;5033449;28;20026;-74
2023/06/21 09:04:02;;;;;;;7.78;6.97;;;26.60;60.40;;;;;;5033381;28;20021;-74
2023/06/21 09:06:28;;;;;;;7.97;7.28;;;26.70;60.60;;;;;;5033228;28;20549;-74
2023/06/21 09:08:54;;;;;;;8.18;7.38;;;26.80;60.40;;;;;;5033506;28;20116;-74
2023/06/21 09:11:24;;;;;;;7.40;6.70;;;26.80;60.20;;;;;;5033608;28;20444;-74
2023/06/21 09:13:51;;;;;;;8.55;7.65;;;26.90;60.10;;;;;;5015746;28;20488;-74
2023/06/21 09:16:17;;;;;;;8.60;7.80;;;26.90;59.80;;;;;;5015772;28;20022;-74
2023/06/21 09:18:46;;;;;;;7.80;7.10;;;27.00;59.80;;;;;;5032902;28;20464;-71
2023/06/21 09:21:12;;;;;;;8.38;7.53;;;26.90;59.70;;;;;;5033231;28;20029;-72
2023/06/21 09:23:39;;;;;;;7.50;6.80;;;27.00;59.80;;;;;;5033219;28;20132;-71
2023/06/21 09:26:05;;;;;;;8.25;7.10;;;27.00;59.60;;;;;;5033208;28;20049;-71
2023/06/21 09:28:31;;;;;;;7.35;6.65;;;27.00;59.40;;;;;;5033083;28;20021;-72
2023/06/21 09:30:58;;;;;;;8.20;7.35;;;27.00;59.30;;;;;;5032985;28;20117;-71
2023/06/21 09:33:24;;;;;;;8.82;7.40;;;26.90;59.20;;;;;;5034026;28;20100;-72
2023/06/21 09:35:50;;;;;;;7.35;6.65;;;26.90;59.20;;;;;;5036502;28;20115;-72
2023/06/21 09:38:20;;;;;;;8.43;6.68;;;26.90;59.30;;;;;;5037178;28;20051;-71
2023/06/21 09:40:46;;;;;;;7.80;7.07;;;26.90;59.20;;;;;;5018828;28;20032;-71
2023/06/21 09:43:12;;;;;;;8.27;7.47;;;26.80;59.10;;;;;;5036601;28;20128;-71
2023/06/21 09:45:37;;;;;;;8.43;7.63;;;26.70;59.20;;;;;;5036592;28;20105;-70
2023/06/21 09:48:03;;;;;;;8.10;7.07;;;26.60;59.20;;;;;;5036387;28;20087;-71
2023/06/21 09:50:36;;;;;;;7.88;7.10;;;26.50;59.30;;;;;;5036423;28;20032;-71
2023/06/21 09:53:02;;;;;;;7.97;7.17;;;26.40;59.40;;;;;;5036537;28;20048;-71
2023/06/21 09:55:28;;;;;;;9.10;8.13;;;26.40;59.70;;;;;;5018836;28;20041;-70
2023/06/21 09:57:54;;;;;;;9.48;8.45;;;26.30;60.00;;;;;;5036299;28;20468;-70
2023/06/21 10:00:20;;;;;;;8.07;7.28;;;26.20;60.20;;;;;;5036258;28;20076;-74
2023/06/21 10:02:45;;;;;;;7.43;5.63;;;26.10;60.30;;;;;;5018191;28;20033;-73
2023/06/21 10:05:18;;;;;;;5.57;4.97;;;26.10;60.20;;;;;;5035943;28;20025;-73
2023/06/21 10:07:45;;;;;;;6.00;5.10;;;26.10;60.30;;;;;;5018695;28;20061;-75
2023/06/21 10:10:11;;;;;;;5.50;4.90;;;26.10;60.30;;;;;;5035127;28;20048;-73
2023/06/21 10:12:37;;;;;;;4.90;4.40;;;26.10;60.50;;;;;;5018300;28;20498;-74
2023/06/21 10:15:04;;;;;;;6.53;4.80;;;26.10;60.50;;;;;;5018318;28;20076;-73
2023/06/21 10:17:31;;;;;;;4.85;4.07;;;26.10;60.50;;;;;;5018225;28;20387;-74
2023/06/21 10:19:59;;;;;;;5.22;4.40;;;26.10;60.40;;;;;;5035913;28;20025;-74
2023/06/21 10:22:27;;;;;;;3.75;3.38;;;26.10;60.20;;;;;;5036001;28;20064;-74
2023/06/21 10:24:52;;;;;;;4.57;4.18;;;26.10;60.10;;;;;;5036108;28;20060;-74
2023/06/21 10:27:20;;;;;;;3.90;3.50;;;26.10;60.00;;;;;;5018375;28;20064;-74
2023/06/21 10:29:53;;;;;;;4.47;3.80;;;26.20;59.90;;;;;;5017897;28;20026;-74
2023/06/21 10:32:20;;;;;;;3.53;3.22;;;26.20;59.60;;;;;;5017876;28;20025;-74
2023/06/21 10:35:06;;;;;;;3.60;3.30;;;26.30;59.40;;;;;;5035797;28;20037;-74
2023/06/21 10:37:53;;;;;;;3.85;3.08;;;26.40;59.10;;;;;;5035602;28;20032;-74
2023/06/21 10:40:19;;;;;;;3.88;3.47;;;26.50;58.80;;;;;;5035396;28;20079;-74
2023/06/21 10:42:46;;;;;;;3.28;2.97;;;26.70;58.60;;;;;;5035344;28;20054;-74
2023/06/21 10:45:12;;;;;;;3.55;3.10;;;26.90;58.10;;;;;;5034217;28;20460;-74
2023/06/21 10:47:39;;;;;;;3.75;3.20;;;27.00;57.60;;;;;;5035332;28;20034;-74
2023/06/21 10:50:06;;;;;;;3.40;3.10;;;27.10;57.20;;;;;;5035475;28;20025;-74
2023/06/21 10:52:33;;;;;;;2.92;2.65;;;27.20;57.00;;;;;;5035462;28;20030;-74
2023/06/21 10:55:01;;;;;;;3.50;3.20;;;27.40;56.70;;;;;;5034956;28;20396;-74
2023/06/21 10:57:34;;;;;;;3.33;2.85;;;27.40;56.30;;;;;;5035121;28;20061;-74
2023/06/21 11:00:02;;;;;;;3.20;2.90;;;27.60;56.00;;;;;;5035643;28;20109;-75
2023/06/21 11:02:28;;;;;;;3.33;3.03;;;27.70;55.70;;;;;;5017557;28;20051;-74
2023/06/21 11:05:19;;;;;;;3.70;3.40;;;27.70;55.40;;;;;;5017492;28;20495;-74
2023/06/21 11:07:47;;;;;;;3.85;3.55;;;27.90;54.90;;;;;;5034975;28;20120;-73
2023/06/21 11:10:13;;;;;;;5.80;3.95;;;27.90;55.20;;;;;;5035242;28;20104;-74
2023/06/21 11:12:39;;;;;;;5.22;4.07;;;27.90;55.20;;;;;;5035147;28;20445;-74
2023/06/21 11:15:06;;;;;;;4.70;4.20;;;27.90;55.20;;;;;;5034795;28;20511;-74
2023/06/21 11:17:35;;;;;;;5.00;4.50;;;27.80;55.30;;;;;;5035086;28;20052;-75
2023/06/21 11:20:23;;;;;;;5.20;4.70;;;27.70;55.30;;;;;;5016946;28;20126;-74
2023/06/21 11:23:07;;;;;;;4.80;4.22;;;27.70;55.20;;;;;;5017182;28;20026;-74
2023/06/21 11:25:38;;;;;;;5.25;4.75;;;27.70;55.30;;;;;;5017331;28;20036;-74
2023/06/21 11:28:19;;;;;;;5.05;4.55;;;27.60;55.50;;;;;;5016639;28;20495;-74
2023/06/21 11:31:03;;;;;;;5.30;4.68;;;27.60;55.60;;;;;;5034479;28;20079;-75
2023/06/21 11:33:46;;;;;;;5.13;4.63;;;27.60;55.60;;;;;;5034524;28;20026;-75
2023/06/21 11:36:12;;;;;;;5.85;4.75;;;27.50;55.50;;;;;;5034585;28;20033;-74
2023/06/21 11:38:46;;;;;;;4.70;4.28;;;27.50;55.70;;;;;;5034429;28;20033;-74
2023/06/21 11:41:43;;;;;;;5.38;4.88;;;27.60;55.80;;;;;;5035024;28;20028;-74
2023/06/21 11:44:29;;;;;;;5.43;4.80;;;27.60;55.60;;;;;;5034260;28;20483;-75
2023/06/21 11:47:17;;;;;;;4.68;3.97;;;27.70;55.40;;;;;;5034542;28;20029;-75
2023/06/21 11:49:53;;;;;;;4.53;4.13;;;27.70;55.10;;;;;;5034861;28;20100;-74
2023/06/21 11:52:26;;;;;;;4.70;4.20;;;27.90;55.20;;;;;;5033115;28;20025;-74
2023/06/21 11:54:52;;;;;;;5.47;4.93;;;28.00;55.20;;;;;;5016236;28;20128;-74
2023/06/21 11:57:17;;;;;;;4.90;4.40;;;28.00;55.10;;;;;;5032383;28;20076;-74
2023/06/21 11:59:44;;;;;;;4.40;3.92;;;28.10;55.00;;;;;;5016278;28;20035;-74
2023/06/21 12:02:20;;;;;;;5.43;4.80;;;28.20;54.80;;;;;;5016345;28;20026;-73
2023/06/21 12:04:46;;;;;;;4.95;4.18;;;28.30;54.60;;;;;;5033717;28;20412;-74
2023/06/21 12:07:12;;;;;;;5.30;4.80;;;28.30;54.50;;;;;;5032704;28;20056;-73
2023/06/21 12:09:38;;;;;;;5.53;4.50;;;28.40;54.40;;;;;;5032566;28;20053;-74
2023/06/21 12:12:09;;;;;;;5.30;4.80;;;28.50;54.40;;;;;;5016097;28;20036;-74
2023/06/21 12:14:36;;;;;;;5.00;4.50;;;28.60;54.30;;;;;;5033872;28;20044;-74
2023/06/21 12:17:02;;;;;;;5.55;5.00;;;28.70;54.20;;;;;;5034187;28;20056;-74
2023/06/21 12:19:27;;;;;;;5.10;4.60;;;28.80;54.20;;;;;;5016143;28;20489;-74
2023/06/21 12:22:00;;;;;;;4.78;3.90;;;28.80;54.10;;;;;;5034035;28;20100;-74
2023/06/21 12:24:31;;;;;;;5.97;4.68;;;29.00;53.80;;;;;;5033722;28;20029;-75
2023/06/21 12:26:57;;;;;;;6.15;4.53;;;29.00;53.60;;;;;;5015826;28;20029;-75
2023/06/21 12:29:25;;;;;;;5.13;4.63;;;29.10;53.60;;;;;;5016343;28;20033;-75
2023/06/21 12:31:53;;;;;;;5.38;4.68;;;29.20;53.40;;;;;;5016365;28;20379;-75
2023/06/21 12:34:18;;;;;;;5.03;4.53;;;29.30;53.20;;;;;;5033561;28;20502;-75
2023/06/21 12:36:45;;;;;;;6.53;4.70;;;29.40;53.10;;;;;;5033737;28;20029;-75
2023/06/21 12:39:12;;;;;;;5.10;4.60;;;29.50;52.90;;;;;;5016120;28;20036;-75
2023/06/21 12:41:43;;;;;;;4.70;4.20;;;29.60;52.90;;;;;;5032823;28;20124;-74
2023/06/21 12:44:26;;;;;;;4.70;4.22;;;29.70;52.60;;;;;;4996189;28;20042;-73
2023/06/21 12:46:52;;;;;;;4.60;4.20;;;29.80;51.60;;;;;;5013972;28;20050;-74
2023/06/21 12:49:18;;;;;;;4.72;4.25;;;29.90;51.80;;;;;;5013807;28;20080;-73